Trade Lake, Wisconsin
Current Conditions -  °F | °C
As of 3:35 AM on Saturday 29 Nov 2014 (Local Time) from KRZN Reporting Station
Scattered Clouds Scattered Clouds  
Wind Chill: 14°   Ceiling: Unl
Heat Index: 22°   Visibility: 10mi
Dew Point: 19°   Wind: 7mph
Humidity: 89%   Direction: 160°SSE
Pressure: 29.59"   Gusts: NA
Location:  45.6678°N, 92.363°W
Report Text: KRZN 290935Z AUTO 16006KT 10SM SCT120 M05/M07 A2959 RMK AO2 T10551071
Loading
Personal Weather Stations






























Interactive Weather Map New forecast layout! Learn more

10-Day Weather Forecast

Advertisements
Track Severe Weather on mobile